Time;durP1;ratioP1;P1;durP2;ratioP2;P2;SDS_P1;SDS_P2;PMS_P1;PMS_P2;Temp;Humidity;BMP_temperature;BMP_pressure;BME280_temperature;BME280_humidity;BME280_pressure;Samples;Min_cycle;Max_cycle;Signal;HPM_P1;HPM_P2
2020/12/11 18:06:09;;;;;;;46.33;23.42;;;4.40;99.90;;;;;;5111299;27;20323;-57
2020/12/11 18:08:34;;;;;;;44.63;23.67;;;4.30;99.90;;;;;;5104580;28;20028;-57
2020/12/11 18:11:00;;;;;;;43.28;22.20;;;4.30;99.90;;;;;;5103461;28;20089;-56
2020/12/11 18:13:25;;;;;;;42.10;23.23;;;4.40;99.90;;;;;;5104796;28;20024;-56
2020/12/11 18:15:51;;;;;;;42.72;23.08;;;4.40;99.90;;;;;;5090245;28;20027;-59
2020/12/11 18:18:16;;;;;;;37.65;21.10;;;4.50;99.90;;;;;;5093403;28;20028;-58
2020/12/11 18:20:42;;;;;;;35.95;20.02;;;4.50;99.90;;;;;;5094377;28;20024;-56
2020/12/11 18:23:07;;;;;;;33.20;18.85;;;4.50;99.90;;;;;;5084083;28;20448;-58
2020/12/11 18:25:36;;;;;;;38.85;20.95;;;4.50;99.90;;;;;;5096052;28;20028;-58
2020/12/11 18:28:02;;;;;;;43.40;21.73;;;4.60;99.90;;;;;;5085585;28;20125;-58
2020/12/11 18:30:35;;;;;;;37.13;20.20;;;4.60;99.90;;;;;;5091326;28;20485;-57
2020/12/11 18:33:01;;;;;;;35.25;20.50;;;4.50;99.90;;;;;;5090094;28;20032;-53
2020/12/11 18:35:26;;;;;;;35.58;20.48;;;4.60;99.90;;;;;;5103846;28;20039;-55
2020/12/11 18:37:52;;;;;;;38.58;19.80;;;4.60;99.90;;;;;;5091896;28;20028;-55
2020/12/11 18:40:18;;;;;;;41.20;21.55;;;4.60;99.90;;;;;;5092546;28;20080;-57
2020/12/11 18:42:43;;;;;;;39.40;23.05;;;4.60;99.90;;;;;;5096999;28;20087;-53
2020/12/11 18:45:09;;;;;;;39.17;21.38;;;4.60;99.90;;;;;;5084967;28;20040;-53
2020/12/11 18:47:34;;;;;;;40.60;20.20;;;4.60;99.90;;;;;;5095747;28;20107;-58
2020/12/11 18:50:00;;;;;;;36.13;18.98;;;4.60;99.90;;;;;;5095779;28;20372;-57
2020/12/11 18:52:25;;;;;;;37.30;20.33;;;4.60;99.90;;;;;;5084288;28;20024;-57
2020/12/11 18:54:53;;;;;;;34.45;18.70;;;4.60;99.90;;;;;;5091097;28;20032;-56
2020/12/11 18:57:19;;;;;;;41.67;21.40;;;4.60;99.90;;;;;;5090271;28;20487;-57
2020/12/11 18:59:44;;;;;;;38.20;20.42;;;4.60;99.90;;;;;;5082095;28;20032;-57
2020/12/11 19:02:10;;;;;;;36.92;20.90;;;4.60;99.90;;;;;;5103098;27;20038;-59
2020/12/11 19:04:36;;;;;;;44.63;21.05;;;4.60;99.90;;;;;;5082855;28;20032;-56
2020/12/11 19:07:01;;;;;;;39.50;20.92;;;4.60;99.90;;;;;;5080977;28;20024;-53
2020/12/11 19:09:27;;;;;;;35.53;20.23;;;4.60;99.90;;;;;;5081392;28;20344;-55
2020/12/11 19:11:53;;;;;;;37.83;21.05;;;4.60;99.90;;;;;;5081607;28;20529;-57
2020/12/11 19:14:18;;;;;;;36.88;21.20;;;4.60;99.90;;;;;;5090700;28;20039;-56
2020/12/11 19:16:44;;;;;;;35.83;20.10;;;4.70;99.90;;;;;;5090479;28;20028;-57
2020/12/11 19:19:11;;;;;;;39.35;21.27;;;4.70;99.90;;;;;;5085977;28;20080;-57
2020/12/11 19:21:37;;;;;;;39.80;20.40;;;4.60;99.90;;;;;;5067269;28;20577;-57
2020/12/11 19:24:02;;;;;;;36.03;20.30;;;4.70;99.90;;;;;;5078618;28;20036;-56
2020/12/11 19:26:28;;;;;;;36.05;19.65;;;4.60;99.90;;;;;;5077720;28;20028;-58
2020/12/11 19:28:54;;;;;;;38.83;19.65;;;4.70;99.90;;;;;;5087673;28;20039;-57
2020/12/11 19:31:20;;;;;;;36.28;18.60;;;4.60;99.90;;;;;;5087167;28;20023;-58
2020/12/11 19:33:46;;;;;;;35.38;19.42;;;4.70;99.90;;;;;;5076183;28;20024;-55
2020/12/11 19:36:12;;;;;;;32.40;19.08;;;4.70;99.90;;;;;;5085755;28;20025;-56
2020/12/11 19:38:37;;;;;;;40.65;21.05;;;4.60;99.90;;;;;;5073333;28;20348;-58
2020/12/11 19:41:03;;;;;;;32.83;18.25;;;4.70;99.90;;;;;;5085075;28;20024;-58
2020/12/11 19:43:29;;;;;;;34.80;21.85;;;4.70;99.90;;;;;;5078978;28;20154;-57
2020/12/11 19:45:55;;;;;;;34.72;20.48;;;4.70;99.90;;;;;;5067485;28;20127;-57
2020/12/11 19:48:20;;;;;;;32.83;18.67;;;4.70;99.90;;;;;;5064630;28;20436;-56
2020/12/11 19:50:47;;;;;;;32.55;18.50;;;4.70;99.90;;;;;;5069978;28;20055;-56
